Pottsville, Texas
Current Conditions -  °F | °C
As of 12:35 PM on Saturday 25 Oct 2014 (Local Time) from KMNZ Reporting Station
Clear Clear  
Wind Chill: 84°   Ceiling: Unl
Heat Index: 84°   Visibility: 10mi
Dew Point: 57°   Wind: 8mph
Humidity: 41%   Direction: 280°W
Pressure: 30.18"   Gusts: NA
Location:  31.67°N, 98.33°W
Report Text: KMNZ 251735Z AUTO 28007KT 250V330 10SM CLR 29/14 A3018 RMK AO2 T02870141
Loading
Personal Weather Stations






























Interactive Weather Map
Tropical Storm Tracking
New forecast layout! Learn more

10-Day Weather Forecast

Advertisements
Track Severe Weather on mobile